Terminal Aerodrome Forecast
Issued by NWS

Current Version | Previous Version | Graphics & Text | Print | Product List | Glossary On
Versions: 1 2 3 4 5 6 7 8 9 10 11 12 13 14 15 16 17 18 19 20 21 22 23 24 25
243
FTUS41 KPBZ 291453 AAA
TAFMGW
TAF AMD
KMGW 291453Z 2915/3012 VRB03KT 2SM BR OVC004
     FM291600 24005KT 4SM BR OVC008
     FM291800 28006KT P6SM BKN015
     FM300400 34004KT 2SM BR OVC008=

USA.gov is the U.S. government's official web portal to all federal, state and local government web resources and services.